createdAt,value
2018-08-11T00:01:50.923Z,15.52
2018-08-11T00:04:19.782Z,15.40
2018-08-11T00:06:48.720Z,15.39
2018-08-11T00:09:17.549Z,15.31
2018-08-11T00:11:46.386Z,15.22
2018-08-11T00:14:15.251Z,15.58
2018-08-11T00:16:44.115Z,15.31
2018-08-11T00:19:12.979Z,15.64
2018-08-11T00:21:44.914Z,15.37
2018-08-11T00:24:13.757Z,15.34
2018-08-11T00:26:42.626Z,15.39
2018-08-11T00:29:11.486Z,15.67
2018-08-11T00:31:40.350Z,15.40
2018-08-11T00:34:09.198Z,15.31
2018-08-11T00:36:38.035Z,15.22
2018-08-11T00:39:09.202Z,15.19
2018-08-11T00:41:38.046Z,15.17
2018-08-11T00:44:07.406Z,15.13
2018-08-11T00:46:36.385Z,15.08
2018-08-11T00:49:05.277Z,14.98
2018-08-11T00:51:34.165Z,14.93
2018-08-11T00:54:03.032Z,14.81
2018-08-11T00:56:31.887Z,14.78
2018-08-11T00:59:00.709Z,14.65
2018-08-11T01:01:29.551Z,14.58
2018-08-11T01:03:58.398Z,14.49
2018-08-11T01:06:27.244Z,14.50
2018-08-11T01:08:56.084Z,14.38
2018-08-11T01:11:24.949Z,14.44
2018-08-11T01:13:53.808Z,14.40
2018-08-11T01:16:22.660Z,14.28
2018-08-11T01:18:51.674Z,14.29
2018-08-11T01:21:20.524Z,14.32
2018-08-11T01:23:49.403Z,14.37
2018-08-11T01:27:12.929Z,14.42
2018-08-11T01:29:41.764Z,14.74
2018-08-11T01:32:10.653Z,14.53
2018-08-11T01:34:39.478Z,14.49
2018-08-11T01:37:08.351Z,14.34
2018-08-11T01:39:37.190Z,14.27
2018-08-11T01:42:06.037Z,14.28
2018-08-11T01:44:34.910Z,14.25
2018-08-11T01:47:03.787Z,14.16
2018-08-11T01:49:38.719Z,14.17
2018-08-11T01:52:07.551Z,14.20
2018-08-11T01:54:36.414Z,14.18
2018-08-11T01:57:05.231Z,14.09
2018-08-11T01:59:34.193Z,14.41
2018-08-11T02:02:03.047Z,14.16
2018-08-11T02:04:31.893Z,14.48
2018-08-11T02:07:00.895Z,14.18
2018-08-11T02:09:29.754Z,14.57
2018-08-11T02:11:58.659Z,14.28
2018-08-11T02:14:27.792Z,14.23
2018-08-11T02:16:56.659Z,14.16
2018-08-11T02:19:25.522Z,14.14
2018-08-11T02:21:54.371Z,14.13
2018-08-11T02:24:23.239Z,14.14
2018-08-11T02:26:52.225Z,14.06
2018-08-11T02:29:21.084Z,14.02
2018-08-11T02:31:49.973Z,14.01
2018-08-11T02:34:23.509Z,14.00
2018-08-11T02:36:52.319Z,13.94
2018-08-11T02:39:21.161Z,13.97
2018-08-11T02:41:50.018Z,13.93
2018-08-11T02:44:18.872Z,14.01
2018-08-11T02:46:47.726Z,13.96
2018-08-11T02:49:16.601Z,13.95
2018-08-11T02:51:45.420Z,14.27
2018-08-11T02:54:14.262Z,14.17
2018-08-11T02:56:43.202Z,14.07
2018-08-11T02:59:12.061Z,14.10
2018-08-11T03:01:40.954Z,14.11
2018-08-11T03:04:09.870Z,14.14
2018-08-11T03:06:38.750Z,14.05
2018-08-11T03:09:08.236Z,14.09
2018-08-11T03:11:37.081Z,14.07
2018-08-11T03:14:06.023Z,14.10
2018-08-11T03:16:34.758Z,14.20
2018-08-11T03:19:03.749Z,14.22
2018-08-11T03:21:32.605Z,14.23
2018-08-11T03:24:01.636Z,14.24
2018-08-11T03:26:30.467Z,14.18
2018-08-11T03:28:59.325Z,14.13
2018-08-11T03:31:28.162Z,14.20
2018-08-11T03:33:57.005Z,14.16
2018-08-11T03:36:25.850Z,14.16
2018-08-11T03:38:54.712Z,14.12
2018-08-11T03:41:23.760Z,14.46
2018-08-11T03:43:52.906Z,14.29
2018-08-11T03:46:21.754Z,14.23
2018-08-11T03:48:50.619Z,14.13
2018-08-11T03:51:19.489Z,14.10
2018-08-11T03:53:48.365Z,14.12
2018-08-11T03:56:17.201Z,14.04
2018-08-11T03:58:46.054Z,14.11
2018-08-11T04:01:14.967Z,14.13
2018-08-11T04:03:46.720Z,14.42
2018-08-11T04:06:15.554Z,14.09
2018-08-11T04:08:44.553Z,14.48
2018-08-11T04:11:13.396Z,14.23
2018-08-11T04:13:42.261Z,14.22
2018-08-11T04:16:11.137Z,14.16
2018-08-11T04:18:39.996Z,14.11
2018-08-11T04:21:08.888Z,14.12
2018-08-11T04:23:37.735Z,14.13
2018-08-11T04:26:12.502Z,14.16
2018-08-11T04:28:41.367Z,14.17
2018-08-11T04:31:10.272Z,14.17
2018-08-11T04:33:39.120Z,14.53
2018-08-11T04:36:07.974Z,14.63
2018-08-11T04:38:36.835Z,14.31
2018-08-11T04:41:05.659Z,14.31
2018-08-11T04:43:34.501Z,14.29
2018-08-11T04:46:03.367Z,14.30
2018-08-11T04:48:32.446Z,14.27
2018-08-11T04:51:01.295Z,14.30
2018-08-11T04:53:30.177Z,14.32
2018-08-11T04:55:59.022Z,14.27
2018-08-11T04:58:27.888Z,14.29
2018-08-11T05:00:56.720Z,14.31
2018-08-11T05:03:25.567Z,14.30
2018-08-11T05:05:54.406Z,14.24
2018-08-11T05:08:23.269Z,14.67
2018-08-11T05:10:52.141Z,14.86
2018-08-11T05:13:21.001Z,14.56
2018-08-11T05:15:49.880Z,14.62
2018-08-11T05:18:18.823Z,14.66
2018-08-11T05:20:47.808Z,14.65
2018-08-11T05:23:16.681Z,14.62
2018-08-11T05:25:45.597Z,14.64
2018-08-11T05:28:14.448Z,14.62
2018-08-11T05:30:43.327Z,14.64
2018-08-11T05:33:15.535Z,14.67
2018-08-11T05:35:44.305Z,14.78
2018-08-11T05:38:13.166Z,14.79
2018-08-11T05:40:42.031Z,14.90
2018-08-11T05:43:10.859Z,14.94
2018-08-11T05:45:39.763Z,14.91
2018-08-11T05:48:08.606Z,14.96
2018-08-11T05:50:37.469Z,14.99
2018-08-11T05:53:06.302Z,15.08
2018-08-11T05:55:35.247Z,15.18
2018-08-11T05:58:04.098Z,15.29
2018-08-11T06:00:32.981Z,15.24
2018-08-11T06:03:01.895Z,15.22
2018-08-11T06:05:30.679Z,15.52
2018-08-11T06:07:59.554Z,15.26
2018-08-11T06:10:28.452Z,15.31
2018-08-11T06:12:57.263Z,15.34
2018-08-11T06:15:26.123Z,15.27
2018-08-11T06:17:55.002Z,15.24
2018-08-11T06:20:23.839Z,15.33
2018-08-11T06:22:52.690Z,15.42
2018-08-11T06:25:21.527Z,15.49
2018-08-11T06:27:50.390Z,15.46
2018-08-11T06:30:19.262Z,15.38
2018-08-11T06:32:48.154Z,15.48
2018-08-11T06:35:16.988Z,15.55
2018-08-11T06:37:45.861Z,15.46
2018-08-11T06:40:17.936Z,15.57
2018-08-11T06:42:46.786Z,15.59
2018-08-11T06:45:15.660Z,15.63
2018-08-11T06:47:44.501Z,15.68
2018-08-11T06:50:13.385Z,16.04
2018-08-11T06:52:42.258Z,15.85
2018-08-11T06:55:11.129Z,16.24
2018-08-11T06:57:39.991Z,16.08
2018-08-11T07:00:08.827Z,16.08
2018-08-11T07:02:43.741Z,16.25
2018-08-11T07:05:12.618Z,16.43
2018-08-11T07:07:41.460Z,16.54
2018-08-11T07:10:10.356Z,16.74
2018-08-11T07:12:39.150Z,17.60
2018-08-11T07:15:08.111Z,19.00
2018-08-11T07:17:36.892Z,20.60
2018-08-11T07:20:05.734Z,22.24
2018-08-11T07:22:34.584Z,24.14
2018-08-11T07:25:06.508Z,25.44
2018-08-11T07:27:35.355Z,25.89
2018-08-11T07:30:04.629Z,26.86
2018-08-11T07:32:33.454Z,27.83
2018-08-11T07:35:02.307Z,27.94
2018-08-11T07:37:31.134Z,28.31
2018-08-11T07:39:59.991Z,28.51
2018-08-11T07:42:28.867Z,29.08
2018-08-11T07:44:57.691Z,30.06
2018-08-11T07:47:27.616Z,29.16
2018-08-11T07:49:56.429Z,29.11
2018-08-11T07:52:25.369Z,29.36
2018-08-11T07:54:54.221Z,29.85
2018-08-11T07:57:23.077Z,30.20
2018-08-11T07:59:51.934Z,29.79
2018-08-11T08:02:20.820Z,30.04
2018-08-11T08:04:49.668Z,30.25
2018-08-11T08:07:18.516Z,31.61
2018-08-11T08:09:47.398Z,31.47
2018-08-11T08:12:16.280Z,32.17
2018-08-11T08:14:45.182Z,31.44
2018-08-11T08:17:14.045Z,30.20
2018-08-11T08:19:42.886Z,28.35
2018-08-11T08:22:11.756Z,27.03
2018-08-11T08:24:40.609Z,26.03
2018-08-11T08:27:09.440Z,26.15
2018-08-11T08:29:38.271Z,24.90
2018-08-11T08:32:13.301Z,25.02
2018-08-11T08:34:42.143Z,23.54
2018-08-11T08:37:10.972Z,22.99
2018-08-11T08:39:39.825Z,22.44
2018-08-11T08:42:08.680Z,22.21
2018-08-11T08:44:37.505Z,22.30
2018-08-11T08:47:06.300Z,22.16
2018-08-11T08:49:35.162Z,22.19
2018-08-11T08:52:04.171Z,22.58
2018-08-11T08:54:33.111Z,22.29
2018-08-11T08:57:01.956Z,22.55
2018-08-11T08:59:30.792Z,24.27
2018-08-11T09:01:59.653Z,24.71
2018-08-11T09:04:28.491Z,25.22
2018-08-11T09:06:57.322Z,26.42
2018-08-11T09:09:26.150Z,26.67
2018-08-11T09:11:55.104Z,26.80
2018-08-11T09:14:23.839Z,26.04
2018-08-11T09:16:52.716Z,25.33
2018-08-11T09:19:21.591Z,25.12
2018-08-11T09:21:50.427Z,27.09
2018-08-11T09:24:19.353Z,28.14
2018-08-11T09:26:48.205Z,29.46
2018-08-11T09:29:17.043Z,30.89
2018-08-11T09:31:45.884Z,31.06
2018-08-11T09:34:14.730Z,30.83
2018-08-11T09:36:43.584Z,30.75
2018-08-11T09:39:12.932Z,30.12
2018-08-11T09:41:41.800Z,30.99
2018-08-11T09:44:10.660Z,31.48
2018-08-11T09:46:39.530Z,31.20
2018-08-11T09:49:08.375Z,29.63
2018-08-11T09:51:37.252Z,28.09
2018-08-11T09:54:06.105Z,28.11
2018-08-11T09:56:34.970Z,27.55
2018-08-11T09:59:03.832Z,28.73
2018-08-11T10:02:06.800Z,28.77
2018-08-11T10:04:35.643Z,28.86
2018-08-11T10:07:04.480Z,29.48
2018-08-11T10:09:33.325Z,28.85
2018-08-11T10:12:02.159Z,27.58
2018-08-11T10:14:31.147Z,26.82
2018-08-11T10:16:59.920Z,27.71
2018-08-11T10:19:28.792Z,27.94
2018-08-11T10:21:57.743Z,28.56
2018-08-11T10:24:26.621Z,28.85
2018-08-11T10:26:55.498Z,31.03
2018-08-11T10:29:24.332Z,31.35
2018-08-11T10:31:53.185Z,30.16
2018-08-11T10:34:22.036Z,30.40
2018-08-11T10:36:50.885Z,30.27
2018-08-11T10:39:19.704Z,30.36
2018-08-11T10:41:48.540Z,28.96
2018-08-11T10:44:17.458Z,28.75
2018-08-11T10:46:46.265Z,29.39
2018-08-11T10:49:15.105Z,29.40
2018-08-11T10:51:43.926Z,27.77
2018-08-11T10:54:12.753Z,26.57
2018-08-11T10:56:41.621Z,26.67
2018-08-11T10:59:10.692Z,25.60
2018-08-11T11:01:39.589Z,26.83
2018-08-11T11:04:08.439Z,27.84
2018-08-11T11:06:37.285Z,28.48
2018-08-11T11:09:08.293Z,29.78
2018-08-11T11:11:37.413Z,30.58
2018-08-11T11:14:06.373Z,29.05
2018-08-11T11:16:35.754Z,28.03
2018-08-11T11:19:04.594Z,27.37
2018-08-11T11:21:33.504Z,27.87
2018-08-11T11:24:02.394Z,26.82
2018-08-11T11:26:31.287Z,26.38
2018-08-11T11:29:00.133Z,25.86
2018-08-11T11:31:28.967Z,25.97
2018-08-11T11:33:57.833Z,26.87
2018-08-11T11:36:26.642Z,27.42
2018-08-11T11:38:55.529Z,27.35
2018-08-11T11:41:24.362Z,27.81
2018-08-11T11:43:53.200Z,28.53
2018-08-11T11:46:22.095Z,28.44
2018-08-11T11:48:51.098Z,28.65
2018-08-11T11:51:20.187Z,27.68
2018-08-11T11:53:49.061Z,26.85
2018-08-11T11:56:17.984Z,26.79
2018-08-11T11:58:46.987Z,27.05
2018-08-11T12:01:15.861Z,26.85
2018-08-11T12:03:44.742Z,26.80
2018-08-11T12:06:13.629Z,26.38
2018-08-11T12:08:42.541Z,26.74
2018-08-11T12:11:11.401Z,26.20
2018-08-11T12:13:40.228Z,25.73
2018-08-11T12:16:09.074Z,26.41
2018-08-11T12:18:37.889Z,25.89
2018-08-11T12:21:06.799Z,25.89
2018-08-11T12:23:35.670Z,25.79
2018-08-11T12:26:04.549Z,25.45
2018-08-11T12:28:33.457Z,25.52
2018-08-11T12:31:02.402Z,25.40
2018-08-11T12:33:31.429Z,25.50
2018-08-11T12:36:00.294Z,24.79
2018-08-11T12:38:29.107Z,24.68
2018-08-11T12:40:57.986Z,24.49
2018-08-11T12:43:26.783Z,24.29
2018-08-11T12:45:55.748Z,24.27
2018-08-11T12:48:24.487Z,24.45
2018-08-11T12:50:53.355Z,24.90
2018-08-11T12:53:22.252Z,25.03
2018-08-11T12:56:09.031Z,25.08
2018-08-11T12:58:37.896Z,24.93
2018-08-11T13:01:06.755Z,25.02
2018-08-11T13:03:35.599Z,25.17
2018-08-11T13:06:04.508Z,25.22
2018-08-11T13:08:33.384Z,25.12
2018-08-11T13:11:02.250Z,24.87
2018-08-11T13:13:31.095Z,24.86
2018-08-11T13:15:59.977Z,25.13
2018-08-11T13:18:31.844Z,25.31
2018-08-11T13:21:00.725Z,25.68
2018-08-11T13:23:29.556Z,24.73
2018-08-11T13:25:58.456Z,24.79
2018-08-11T13:28:27.292Z,24.77
2018-08-11T13:30:56.126Z,24.78
2018-08-11T13:33:24.980Z,24.95
2018-08-11T13:35:53.798Z,24.73
2018-08-11T13:38:22.656Z,24.97
2018-08-11T13:40:51.742Z,24.81
2018-08-11T13:43:20.580Z,24.86
2018-08-11T13:45:49.412Z,25.13
2018-08-11T13:48:18.326Z,25.05
2018-08-11T13:50:47.187Z,24.74
2018-08-11T13:53:16.123Z,24.94
2018-08-11T13:55:45.006Z,24.56
2018-08-11T13:58:13.879Z,24.40
2018-08-11T14:00:42.685Z,24.32
2018-08-11T14:03:11.503Z,24.23
2018-08-11T14:05:40.356Z,24.30
2018-08-11T14:08:09.231Z,24.42
2018-08-11T14:10:38.066Z,24.64
2018-08-11T14:13:06.902Z,24.34
2018-08-11T14:15:35.739Z,24.39
2018-08-11T14:18:04.726Z,24.52
2018-08-11T14:20:33.588Z,24.34
2018-08-11T14:23:02.417Z,24.43
2018-08-11T14:25:31.310Z,24.33
2018-08-11T14:28:00.144Z,24.58
2018-08-11T14:30:28.983Z,24.28
2018-08-11T14:32:57.844Z,24.22
2018-08-11T14:35:26.704Z,24.35
2018-08-11T14:37:55.530Z,24.32
2018-08-11T14:40:24.358Z,24.16
2018-08-11T14:42:53.285Z,24.01
2018-08-11T14:45:22.471Z,24.11
2018-08-11T14:47:51.454Z,24.23
2018-08-11T14:50:20.311Z,24.09
2018-08-11T14:52:49.132Z,24.18
2018-08-11T14:55:18.024Z,23.94
2018-08-11T14:57:46.868Z,23.91
2018-08-11T15:00:15.689Z,23.72
2018-08-11T15:02:44.545Z,23.41
2018-08-11T15:05:13.381Z,23.45
2018-08-11T15:07:42.301Z,23.47
2018-08-11T15:10:11.138Z,23.64
2018-08-11T15:12:39.953Z,23.66
2018-08-11T15:15:10.073Z,23.61
2018-08-11T15:17:39.592Z,23.42
2018-08-11T15:20:09.179Z,23.21
2018-08-11T15:22:38.502Z,23.10
2018-08-11T15:25:08.093Z,23.05
2018-08-11T15:27:36.944Z,23.22
2018-08-11T15:30:07.687Z,23.36
2018-08-11T15:32:36.579Z,23.83
2018-08-11T15:35:05.690Z,23.66
2018-08-11T15:37:34.638Z,23.43
2018-08-11T15:40:03.793Z,23.34
2018-08-11T15:42:32.634Z,23.70
2018-08-11T15:45:01.465Z,23.75
2018-08-11T15:47:30.345Z,23.66
2018-08-11T15:49:59.278Z,23.42
2018-08-11T15:52:28.128Z,23.36
2018-08-11T15:54:56.973Z,23.00
2018-08-11T15:57:25.811Z,22.97
2018-08-11T15:59:54.698Z,22.96
2018-08-11T16:02:23.575Z,23.07
2018-08-11T16:04:52.428Z,23.26
2018-08-11T16:07:21.266Z,23.24
2018-08-11T16:09:50.134Z,22.85
2018-08-11T16:12:19.009Z,22.91
2018-08-11T16:14:47.934Z,23.19
2018-08-11T16:17:16.825Z,23.02
2018-08-11T16:19:45.695Z,22.92
2018-08-11T16:22:14.735Z,22.91
2018-08-11T16:24:43.689Z,22.87
2018-08-11T16:27:12.544Z,22.88
2018-08-11T16:29:41.397Z,22.97
2018-08-11T16:32:10.268Z,23.22
2018-08-11T16:34:39.145Z,23.14
2018-08-11T16:37:08.159Z,23.19
2018-08-11T16:39:37.028Z,23.02
2018-08-11T16:42:05.908Z,22.73
2018-08-11T16:44:34.748Z,22.57
2018-08-11T16:47:03.609Z,22.72
2018-08-11T16:49:32.428Z,22.41
2018-08-11T16:52:01.296Z,22.40
2018-08-11T16:54:30.145Z,22.37
2018-08-11T16:56:58.974Z,22.32
2018-08-11T16:59:27.867Z,22.31
2018-08-11T17:01:56.655Z,22.38
2018-08-11T17:04:25.533Z,22.29
2018-08-11T17:06:54.363Z,22.13
2018-08-11T17:09:23.221Z,22.18
2018-08-11T17:11:52.068Z,22.16
2018-08-11T17:14:20.958Z,22.19
2018-08-11T17:16:49.781Z,22.18
2018-08-11T17:19:18.621Z,22.20
2018-08-11T17:21:47.612Z,22.15
2018-08-11T17:24:16.452Z,22.11
2018-08-11T17:26:45.349Z,21.97
2018-08-11T17:29:14.187Z,21.99
2018-08-11T17:31:43.017Z,22.01
2018-08-11T17:34:11.888Z,21.99
2018-08-11T17:36:40.750Z,21.99
2018-08-11T17:39:10.977Z,21.97
2018-08-11T17:41:40.168Z,21.88
2018-08-11T17:44:09.028Z,21.87
2018-08-11T17:46:37.892Z,21.80
2018-08-11T17:49:06.733Z,21.71
2018-08-11T17:51:35.570Z,21.61
2018-08-11T17:54:04.412Z,21.81
2018-08-11T17:56:33.349Z,21.63
2018-08-11T17:59:02.299Z,21.52
2018-08-11T18:01:31.145Z,21.41
2018-08-11T18:04:01.599Z,21.43
2018-08-11T18:06:30.412Z,21.63
2018-08-11T18:08:59.292Z,21.44
2018-08-11T18:11:28.117Z,21.34
2018-08-11T18:13:56.969Z,21.27
2018-08-11T18:16:25.859Z,21.22
2018-08-11T18:18:54.717Z,21.15
2018-08-11T18:21:23.598Z,21.12
2018-08-11T18:23:52.442Z,21.09
2018-08-11T18:26:21.394Z,20.98
2018-08-11T18:28:50.269Z,20.91
2018-08-11T18:31:19.179Z,20.81
2018-08-11T18:33:47.959Z,20.69
2018-08-11T18:36:16.835Z,20.55
2018-08-11T18:38:45.692Z,20.78
2018-08-11T18:41:14.544Z,20.83
2018-08-11T18:43:43.391Z,20.53
2018-08-11T18:46:12.238Z,20.41
2018-08-11T18:48:42.523Z,20.36
2018-08-11T18:51:11.385Z,20.22
2018-08-11T18:53:40.232Z,20.09
2018-08-11T18:56:09.124Z,19.98
2018-08-11T18:58:38.022Z,19.90
2018-08-11T19:01:06.881Z,19.80
2018-08-11T19:03:35.736Z,19.68
2018-08-11T19:06:04.581Z,19.58
2018-08-11T19:08:33.423Z,19.45
2018-08-11T19:11:08.684Z,19.34
2018-08-11T19:13:37.564Z,19.25
2018-08-11T19:16:06.637Z,19.43
2018-08-11T19:18:35.512Z,19.12
2018-08-11T19:21:04.386Z,19.01
2018-08-11T19:23:33.199Z,18.90
2018-08-11T19:26:02.163Z,18.77
2018-08-11T19:28:30.882Z,18.57
2018-08-11T19:30:59.731Z,18.44
2018-08-11T19:34:26.825Z,18.30
2018-08-11T19:36:55.712Z,18.24
2018-08-11T19:39:24.547Z,18.15
2018-08-11T19:41:53.398Z,18.07
2018-08-11T19:44:22.287Z,17.96
2018-08-11T19:46:51.123Z,17.88
2018-08-11T19:49:19.972Z,17.84
2018-08-11T19:51:48.845Z,17.79
2018-08-11T19:54:17.833Z,17.74
2018-08-11T19:56:52.737Z,17.70
2018-08-11T19:59:21.580Z,17.61
2018-08-11T20:01:50.465Z,17.51
2018-08-11T20:04:19.367Z,17.49
2018-08-11T20:06:48.201Z,17.44
2018-08-11T20:09:17.055Z,17.40
2018-08-11T20:11:45.880Z,17.29
2018-08-11T20:14:14.831Z,17.19
2018-08-11T20:16:43.665Z,17.13
2018-08-11T20:22:44.704Z,17.01
2018-08-11T20:25:13.597Z,16.86
2018-08-11T20:27:42.421Z,16.75
2018-08-11T20:30:11.615Z,16.74
2018-08-11T20:32:40.450Z,16.74
2018-08-11T20:35:09.707Z,16.71
2018-08-11T20:37:38.551Z,16.57
2018-08-11T20:40:07.402Z,16.43
2018-08-11T20:42:36.271Z,16.30
2018-08-11T20:45:05.825Z,16.24
2018-08-11T20:47:34.743Z,16.19
2018-08-11T20:50:03.551Z,16.18
2018-08-11T20:52:32.520Z,16.16
2018-08-11T20:55:01.472Z,16.10
2018-08-11T20:57:30.436Z,15.95
2018-08-11T20:59:59.275Z,15.97
2018-08-11T21:02:28.199Z,16.18
2018-08-11T21:04:57.228Z,15.88
2018-08-11T21:07:26.048Z,15.81
2018-08-11T21:09:54.915Z,15.69
2018-08-11T21:12:23.791Z,15.68
2018-08-11T21:14:52.587Z,15.67
2018-08-11T21:17:21.472Z,15.62
2018-08-11T21:19:50.328Z,15.56
2018-08-11T21:22:19.178Z,15.37
2018-08-11T21:24:48.007Z,15.28
2018-08-11T21:27:18.369Z,15.22
2018-08-11T21:29:47.205Z,15.20
2018-08-11T21:32:16.046Z,15.23
2018-08-11T21:34:44.880Z,15.25
2018-08-11T21:37:13.733Z,15.21
2018-08-11T21:39:42.595Z,15.19
2018-08-11T21:42:11.429Z,15.05
2018-08-11T21:44:40.279Z,15.02
2018-08-11T21:47:09.104Z,15.04
2018-08-11T21:49:37.987Z,14.96
2018-08-11T21:52:06.849Z,14.92
2018-08-11T21:54:35.707Z,14.88
2018-08-11T21:57:04.530Z,14.84
2018-08-11T21:59:33.343Z,14.86
2018-08-11T22:02:02.206Z,15.13
2018-08-11T22:04:34.916Z,14.91
2018-08-11T22:07:07.607Z,14.88
2018-08-11T22:09:36.519Z,14.89
2018-08-11T22:12:05.278Z,14.80
2018-08-11T22:14:34.279Z,15.03
2018-08-11T22:17:02.983Z,14.71
2018-08-11T22:19:31.858Z,15.07
2018-08-11T22:22:00.683Z,14.81
2018-08-11T22:24:29.487Z,14.76
2018-08-11T22:26:58.366Z,14.74
2018-08-11T22:29:27.195Z,14.79
2018-08-11T22:31:58.925Z,14.68
2018-08-11T22:34:27.783Z,14.66
2018-08-11T22:36:56.636Z,14.60
2018-08-11T22:39:25.485Z,14.53
2018-08-11T22:41:54.308Z,14.52
2018-08-11T22:44:23.160Z,14.51
2018-08-11T22:46:51.979Z,14.50
2018-08-11T22:49:20.867Z,14.50
2018-08-11T22:51:49.690Z,14.41
2018-08-11T22:54:21.432Z,14.38
2018-08-11T22:56:50.299Z,14.31
2018-08-11T22:59:19.131Z,14.25
2018-08-11T23:01:47.974Z,14.20
2018-08-11T23:04:16.816Z,14.23
2018-08-11T23:06:45.635Z,14.50
2018-08-11T23:09:14.510Z,14.38
2018-08-11T23:11:43.346Z,14.35
2018-08-11T23:14:12.188Z,14.24
2018-08-11T23:16:41.137Z,14.23
2018-08-11T23:19:10.012Z,14.24
2018-08-11T23:21:38.848Z,14.22
2018-08-11T23:24:07.677Z,14.23
2018-08-11T23:26:36.556Z,14.28
2018-08-11T23:29:05.398Z,14.23
2018-08-11T23:31:34.244Z,14.26
2018-08-11T23:34:03.078Z,14.23
2018-08-11T23:36:31.925Z,14.16
2018-08-11T23:39:00.958Z,14.11
2018-08-11T23:41:29.809Z,14.18
2018-08-11T23:43:58.683Z,14.13
2018-08-11T23:46:27.563Z,14.10
2018-08-11T23:48:56.468Z,14.08
2018-08-11T23:51:25.390Z,14.19
2018-08-11T23:53:54.210Z,14.24
2018-08-11T23:56:23.103Z,14.39
2018-08-11T23:58:52.089Z,14.17
